createdAt,value
2017-12-09T00:01:46.292Z,2.20
2017-12-09T00:04:12.292Z,2.20
2017-12-09T00:06:38.491Z,2.40
2017-12-09T00:09:05.210Z,2.30
2017-12-09T00:11:31.199Z,2.30
2017-12-09T00:13:57.376Z,2.40
2017-12-09T00:16:24.086Z,2.30
2017-12-09T00:18:50.092Z,2.40
2017-12-09T00:21:16.085Z,2.20
2017-12-09T00:23:42.080Z,2.30
2017-12-09T00:26:08.049Z,2.30
2017-12-09T00:28:34.053Z,2.30
2017-12-09T00:31:00.051Z,2.30
2017-12-09T00:33:26.769Z,2.20
2017-12-09T00:35:53.007Z,2.20
2017-12-09T00:38:19.757Z,2.30
2017-12-09T00:40:46.476Z,2.30
2017-12-09T00:43:27.858Z,2.30
2017-12-09T00:45:53.827Z,2.30
2017-12-09T00:48:19.820Z,2.60
2017-12-09T00:50:46.744Z,2.70
2017-12-09T00:53:12.716Z,2.70
2017-12-09T00:55:38.679Z,2.80
2017-12-09T00:58:04.656Z,2.60
2017-12-09T01:00:30.688Z,2.40
2017-12-09T01:02:56.644Z,2.30
2017-12-09T01:05:22.800Z,2.20
2017-12-09T01:07:49.520Z,2.20
2017-12-09T01:10:15.497Z,2.30
2017-12-09T01:12:41.672Z,2.30
2017-12-09T01:15:07.667Z,2.20
2017-12-09T01:17:46.252Z,2.10
2017-12-09T01:20:12.237Z,2.20
2017-12-09T01:22:38.960Z,2.30
2017-12-09T01:25:04.951Z,2.30
2017-12-09T01:27:30.924Z,2.40
2017-12-09T01:29:57.638Z,2.30
2017-12-09T01:32:23.663Z,2.40
2017-12-09T01:34:51.104Z,2.30
2017-12-09T01:37:17.088Z,2.30
2017-12-09T01:39:43.056Z,2.40
2017-12-09T01:42:09.041Z,2.30
2017-12-09T01:44:35.005Z,2.30
2017-12-09T01:47:01.134Z,2.30
2017-12-09T01:49:27.132Z,2.40
2017-12-09T01:51:53.111Z,2.40
2017-12-09T01:54:19.116Z,2.40
2017-12-09T01:56:45.848Z,2.50
2017-12-09T01:59:12.561Z,2.50
2017-12-09T02:01:38.545Z,2.50
2017-12-09T02:04:04.499Z,2.50
2017-12-09T02:06:30.474Z,2.50
2017-12-09T02:08:56.452Z,2.60
2017-12-09T02:11:22.424Z,2.60
2017-12-09T02:13:48.412Z,2.50
2017-12-09T02:16:15.140Z,2.60
2017-12-09T02:18:41.141Z,2.60
2017-12-09T02:21:07.132Z,2.70
2017-12-09T02:23:33.312Z,2.70
2017-12-09T02:25:59.284Z,2.80
2017-12-09T02:28:25.280Z,2.80
2017-12-09T02:30:52.001Z,2.80
2017-12-09T02:33:17.976Z,2.80
2017-12-09T02:35:43.941Z,2.80
2017-12-09T02:38:10.682Z,2.80
2017-12-09T02:40:37.400Z,2.80
2017-12-09T02:43:03.374Z,2.80
2017-12-09T02:45:29.372Z,2.70
2017-12-09T02:47:56.088Z,2.80
2017-12-09T02:50:22.067Z,2.80
2017-12-09T02:52:48.069Z,2.80
2017-12-09T02:55:14.093Z,2.90
2017-12-09T02:57:40.061Z,2.70
2017-12-09T03:00:06.200Z,2.70
2017-12-09T03:02:32.189Z,2.80
2017-12-09T03:04:58.144Z,2.70
2017-12-09T03:07:24.135Z,2.70
2017-12-09T03:09:50.112Z,2.70
2017-12-09T03:12:16.098Z,2.70
2017-12-09T03:14:42.086Z,2.70
2017-12-09T03:17:08.068Z,2.70
2017-12-09T03:19:34.788Z,2.60
2017-12-09T03:22:00.748Z,2.60
2017-12-09T03:24:26.730Z,2.60
2017-12-09T03:26:52.713Z,2.50
2017-12-09T03:29:18.698Z,2.50
2017-12-09T03:31:45.425Z,2.40
2017-12-09T03:34:12.152Z,2.40
2017-12-09T03:36:38.122Z,2.40
2017-12-09T03:39:04.128Z,2.60
2017-12-09T03:41:30.088Z,2.40
2017-12-09T03:43:56.052Z,2.30
2017-12-09T03:46:22.768Z,2.30
2017-12-09T03:48:48.740Z,2.30
2017-12-09T03:51:14.744Z,2.40
2017-12-09T03:53:41.476Z,2.40
2017-12-09T03:56:08.200Z,2.40
2017-12-09T03:58:34.172Z,2.40
2017-12-09T04:01:00.181Z,2.40
2017-12-09T04:03:26.990Z,2.40
2017-12-09T04:05:53.689Z,2.40
2017-12-09T04:08:19.701Z,2.40
2017-12-09T04:10:45.659Z,2.50
2017-12-09T04:13:11.636Z,2.50
2017-12-09T04:15:37.628Z,2.60
2017-12-09T04:18:04.335Z,2.50
2017-12-09T04:20:31.080Z,2.50
2017-12-09T04:22:57.076Z,2.50
2017-12-09T04:25:23.058Z,2.40
2017-12-09T04:27:49.021Z,2.40
2017-12-09T04:30:15.000Z,2.40
2017-12-09T04:32:40.977Z,2.40
2017-12-09T04:35:06.964Z,2.40
2017-12-09T04:37:32.928Z,2.40
2017-12-09T04:39:58.940Z,2.30
2017-12-09T04:42:24.905Z,2.40
2017-12-09T04:44:50.853Z,2.30
2017-12-09T04:47:16.807Z,2.20
2017-12-09T04:49:42.791Z,2.20
2017-12-09T04:52:08.764Z,2.20
2017-12-09T04:54:35.460Z,2.10
2017-12-09T04:57:01.444Z,2.10
2017-12-09T04:59:27.432Z,2.20
2017-12-09T05:01:53.426Z,2.20
2017-12-09T05:04:19.567Z,2.10
2017-12-09T05:06:45.529Z,2.10
2017-12-09T05:09:12.249Z,2.20
2017-12-09T05:11:39.285Z,2.20
2017-12-09T05:14:05.264Z,2.20
2017-12-09T05:16:31.243Z,2.20
2017-12-09T05:18:57.977Z,2.20
2017-12-09T05:21:24.699Z,2.30
2017-12-09T05:23:50.644Z,2.30
2017-12-09T05:26:17.380Z,2.30
2017-12-09T05:28:44.101Z,2.40
2017-12-09T05:31:10.072Z,2.40
2017-12-09T05:33:36.039Z,2.40
2017-12-09T05:36:02.010Z,2.40
2017-12-09T05:38:28.197Z,2.50
2017-12-09T05:40:54.156Z,2.30
2017-12-09T05:43:20.873Z,2.40
2017-12-09T05:45:47.878Z,2.20
2017-12-09T05:48:13.852Z,2.20
2017-12-09T05:50:39.846Z,2.20
2017-12-09T05:53:06.685Z,2.20
2017-12-09T05:55:32.647Z,2.20
2017-12-09T05:57:58.631Z,2.40
2017-12-09T06:00:25.402Z,2.30
2017-12-09T06:02:51.372Z,2.30
2017-12-09T06:05:17.347Z,2.40
2017-12-09T06:07:43.328Z,2.50
2017-12-09T06:10:09.292Z,2.40
2017-12-09T06:12:35.260Z,2.40
2017-12-09T06:15:01.252Z,2.40
2017-12-09T06:17:27.224Z,2.20
2017-12-09T06:19:53.950Z,2.20
2017-12-09T06:22:20.784Z,2.20
2017-12-09T06:24:46.744Z,2.20
2017-12-09T06:27:12.742Z,2.20
2017-12-09T06:29:38.706Z,2.30
2017-12-09T06:32:04.665Z,2.30
2017-12-09T06:34:30.636Z,2.30
2017-12-09T06:36:57.017Z,2.30
2017-12-09T06:39:23.004Z,2.50
2017-12-09T06:41:48.969Z,2.40
2017-12-09T06:44:15.702Z,2.30
2017-12-09T06:46:41.676Z,2.30
2017-12-09T06:49:07.670Z,2.40
2017-12-09T06:51:34.408Z,2.30
2017-12-09T06:54:01.583Z,2.20
2017-12-09T06:56:27.621Z,2.20
2017-12-09T06:58:53.588Z,2.30
2017-12-09T07:01:20.299Z,2.30
2017-12-09T07:03:46.550Z,2.30
2017-12-09T07:06:13.255Z,2.30
2017-12-09T07:08:39.208Z,2.30
2017-12-09T07:11:05.191Z,2.20
2017-12-09T07:13:31.168Z,2.20
2017-12-09T07:15:57.876Z,2.30
2017-12-09T07:18:24.000Z,2.30
2017-12-09T07:20:49.960Z,2.40
2017-12-09T07:23:15.940Z,2.30
2017-12-09T07:25:41.941Z,2.30
2017-12-09T07:28:07.892Z,2.20
2017-12-09T07:30:34.612Z,2.30
2017-12-09T07:33:00.587Z,2.20
2017-12-09T07:35:26.548Z,2.20
2017-12-09T07:37:52.501Z,2.20
2017-12-09T07:40:19.529Z,2.30
2017-12-09T07:42:45.492Z,2.20
2017-12-09T07:45:11.456Z,2.30
2017-12-09T07:47:37.437Z,2.20
2017-12-09T07:50:03.431Z,2.30
2017-12-09T07:52:30.160Z,2.50
2017-12-09T07:54:56.940Z,2.50
2017-12-09T07:57:22.888Z,2.50
2017-12-09T07:59:48.869Z,2.40
2017-12-09T08:02:14.832Z,2.50
2017-12-09T08:04:40.807Z,2.50
2017-12-09T08:07:06.766Z,2.60
2017-12-09T08:09:32.739Z,2.70
2017-12-09T08:11:58.704Z,2.50
2017-12-09T08:14:24.695Z,2.50
2017-12-09T08:16:50.671Z,2.70
2017-12-09T08:19:16.632Z,2.70
2017-12-09T08:21:42.595Z,2.60
2017-12-09T08:24:08.554Z,2.60
2017-12-09T08:26:35.268Z,2.80
2017-12-09T08:29:01.252Z,2.70
2017-12-09T08:31:27.224Z,2.70
2017-12-09T08:33:53.928Z,2.80
2017-12-09T08:36:19.911Z,2.70
2017-12-09T08:38:45.874Z,2.70
2017-12-09T08:41:11.860Z,2.70
2017-12-09T08:43:37.836Z,2.70
2017-12-09T08:46:04.576Z,3.00
2017-12-09T08:48:31.357Z,2.90
2017-12-09T08:50:57.528Z,2.90
2017-12-09T08:53:23.487Z,3.00
2017-12-09T08:55:49.446Z,3.00
2017-12-09T08:58:15.420Z,3.00
2017-12-09T09:00:41.373Z,3.10
2017-12-09T09:03:07.330Z,3.00
2017-12-09T09:05:33.547Z,3.10
2017-12-09T09:07:59.505Z,3.10
2017-12-09T09:10:25.484Z,3.20
2017-12-09T09:12:51.452Z,3.20
2017-12-09T09:15:17.432Z,3.40
2017-12-09T09:17:43.393Z,3.30
2017-12-09T09:20:09.679Z,3.20
2017-12-09T09:22:35.642Z,3.00
2017-12-09T09:25:01.635Z,3.10
2017-12-09T09:27:28.375Z,3.20
2017-12-09T09:29:55.094Z,3.50
2017-12-09T09:32:21.052Z,3.40
2017-12-09T09:34:47.032Z,3.70
2017-12-09T09:37:12.977Z,3.70
2017-12-09T09:39:39.702Z,3.60
2017-12-09T09:42:05.659Z,3.60
2017-12-09T09:44:31.632Z,3.40
2017-12-09T09:46:57.576Z,3.30
2017-12-09T09:49:24.309Z,3.20
2017-12-09T09:51:51.048Z,3.20
2017-12-09T09:54:17.775Z,3.20
2017-12-09T09:56:43.724Z,3.20
2017-12-09T09:59:09.737Z,3.40
2017-12-09T10:01:36.451Z,3.50
2017-12-09T10:04:02.412Z,3.50
2017-12-09T10:06:28.378Z,3.90
2017-12-09T10:08:54.374Z,4.30
2017-12-09T10:11:20.328Z,4.70
2017-12-09T10:13:47.767Z,5.00
2017-12-09T10:16:13.764Z,4.90
2017-12-09T10:18:39.733Z,5.00
2017-12-09T10:21:06.438Z,5.00
2017-12-09T10:23:32.588Z,5.00
2017-12-09T10:25:58.553Z,4.80
2017-12-09T10:28:24.513Z,5.00
2017-12-09T10:30:50.668Z,5.00
2017-12-09T10:33:16.640Z,4.90
2017-12-09T10:35:42.604Z,4.90
2017-12-09T10:38:09.360Z,4.80
2017-12-09T10:40:35.340Z,4.80
2017-12-09T10:43:01.305Z,4.80
2017-12-09T10:45:27.505Z,4.80
2017-12-09T10:47:54.216Z,4.80
2017-12-09T10:50:20.172Z,4.80
2017-12-09T10:52:46.884Z,4.90
2017-12-09T10:55:12.896Z,4.90
2017-12-09T10:57:38.876Z,4.90
2017-12-09T11:00:05.129Z,4.80
2017-12-09T11:02:31.092Z,4.70
2017-12-09T11:04:57.808Z,4.60
2017-12-09T11:07:23.807Z,4.60
2017-12-09T11:09:49.772Z,4.80
2017-12-09T11:12:16.489Z,4.80
2017-12-09T11:14:42.476Z,4.80
2017-12-09T11:17:08.513Z,4.90
2017-12-09T11:19:34.480Z,4.90
2017-12-09T11:22:01.496Z,4.80
2017-12-09T11:24:27.479Z,4.80
2017-12-09T11:26:53.476Z,4.70
2017-12-09T11:29:19.474Z,4.50
2017-12-09T11:31:46.188Z,4.60
2017-12-09T11:34:12.156Z,4.50
2017-12-09T11:36:38.145Z,4.70
2017-12-09T11:39:04.854Z,4.60
2017-12-09T11:41:30.822Z,4.60
2017-12-09T11:43:56.792Z,4.70
2017-12-09T11:46:22.752Z,4.70
2017-12-09T11:48:49.468Z,4.70
2017-12-09T11:51:15.444Z,4.60
2017-12-09T11:53:41.444Z,4.70
2017-12-09T11:56:07.406Z,4.60
2017-12-09T11:58:33.385Z,4.70
2017-12-09T12:00:59.363Z,4.70
2017-12-09T12:03:25.324Z,4.70
2017-12-09T12:05:51.302Z,4.60
2017-12-09T12:08:17.310Z,4.60
2017-12-09T12:10:43.285Z,4.60
2017-12-09T12:13:09.239Z,4.50
2017-12-09T12:15:35.212Z,4.50
2017-12-09T12:18:01.900Z,4.40
2017-12-09T12:20:27.852Z,4.40
2017-12-09T12:22:53.920Z,4.40
2017-12-09T12:25:19.893Z,4.40
2017-12-09T12:27:45.852Z,4.30
2017-12-09T12:30:11.830Z,4.20
2017-12-09T12:32:37.804Z,4.40
2017-12-09T12:35:03.761Z,4.40
2017-12-09T12:37:30.107Z,4.30
2017-12-09T12:39:56.068Z,4.40
2017-12-09T12:42:22.049Z,4.30
2017-12-09T12:44:48.047Z,4.30
2017-12-09T12:47:14.004Z,4.30
2017-12-09T12:49:40.700Z,4.30
2017-12-09T12:52:06.692Z,4.30
2017-12-09T12:54:32.668Z,4.30
2017-12-09T12:56:58.629Z,4.40
2017-12-09T12:59:24.604Z,4.30
2017-12-09T13:01:50.571Z,4.30
2017-12-09T13:04:16.552Z,4.30
2017-12-09T13:06:42.769Z,4.40
2017-12-09T13:09:08.725Z,4.30
2017-12-09T13:11:34.702Z,4.30
2017-12-09T13:14:00.688Z,4.10
2017-12-09T13:16:26.700Z,4.10
2017-12-09T13:18:53.460Z,4.10
2017-12-09T13:21:19.612Z,4.00
2017-12-09T13:23:45.581Z,3.90
2017-12-09T13:26:11.549Z,3.90
2017-12-09T13:28:37.541Z,3.80
2017-12-09T13:31:03.545Z,3.70
2017-12-09T13:33:29.518Z,3.60
2017-12-09T13:35:55.512Z,3.50
2017-12-09T13:38:21.516Z,3.60
2017-12-09T13:40:47.495Z,3.50
2017-12-09T13:43:14.226Z,3.80
2017-12-09T13:45:40.960Z,3.80
2017-12-09T13:48:06.927Z,3.80
2017-12-09T13:50:32.884Z,3.90
2017-12-09T13:52:59.070Z,3.80
2017-12-09T13:55:25.040Z,3.70
2017-12-09T13:57:51.013Z,3.80
2017-12-09T14:00:17.008Z,3.90
2017-12-09T14:02:43.719Z,3.90
2017-12-09T14:05:09.688Z,3.90
2017-12-09T14:07:35.656Z,3.90
2017-12-09T14:10:01.648Z,3.90
2017-12-09T14:12:27.613Z,4.00
2017-12-09T14:14:54.338Z,4.00
2017-12-09T14:17:20.296Z,4.00
2017-12-09T14:19:46.272Z,3.90
2017-12-09T14:22:12.229Z,4.00
2017-12-09T14:24:38.930Z,4.20
2017-12-09T14:27:04.901Z,4.20
2017-12-09T14:29:30.876Z,4.10
2017-12-09T14:31:56.851Z,4.10
2017-12-09T14:34:22.809Z,4.10
2017-12-09T14:36:49.036Z,4.20
2017-12-09T14:39:15.007Z,4.10
2017-12-09T14:41:40.977Z,4.20
2017-12-09T14:44:06.953Z,4.20
2017-12-09T14:46:32.902Z,4.20
2017-12-09T14:48:58.877Z,4.20
2017-12-09T14:51:24.868Z,4.10
2017-12-09T14:53:50.854Z,4.10
2017-12-09T14:56:16.816Z,4.10
2017-12-09T14:58:42.796Z,3.80
2017-12-09T15:01:09.094Z,3.70
2017-12-09T15:03:35.061Z,3.50
2017-12-09T15:06:01.022Z,3.50
2017-12-09T15:08:27.733Z,3.60
2017-12-09T15:10:53.693Z,3.50
2017-12-09T15:13:19.667Z,3.20
2017-12-09T15:15:45.669Z,3.20
2017-12-09T15:18:11.657Z,3.10
2017-12-09T15:20:37.757Z,3.00
2017-12-09T15:23:04.454Z,3.10
2017-12-09T15:25:30.421Z,3.10
2017-12-09T15:27:57.136Z,3.20
2017-12-09T15:30:23.111Z,3.10
2017-12-09T15:32:49.293Z,3.20
2017-12-09T15:35:16.016Z,3.10
2017-12-09T15:37:42.019Z,3.10
2017-12-09T15:40:08.000Z,3.20
2017-12-09T15:42:33.953Z,3.20
2017-12-09T15:44:59.921Z,3.20
2017-12-09T15:47:26.928Z,3.10
2017-12-09T15:49:52.916Z,3.10
2017-12-09T15:52:18.876Z,3.20
2017-12-09T15:54:45.016Z,3.20
2017-12-09T15:57:11.023Z,3.00
2017-12-09T15:59:37.003Z,3.00
2017-12-09T16:02:03.010Z,2.90
2017-12-09T16:04:28.980Z,2.70
2017-12-09T16:06:54.950Z,2.70
2017-12-09T16:09:21.238Z,2.70
2017-12-09T16:11:47.230Z,2.80
2017-12-09T16:14:13.200Z,2.90
2017-12-09T16:16:40.128Z,3.00
2017-12-09T16:19:08.392Z,3.00
2017-12-09T16:21:34.380Z,3.00
2017-12-09T16:24:00.374Z,3.00
2017-12-09T16:26:26.377Z,3.00
2017-12-09T16:28:53.076Z,3.00
2017-12-09T16:31:19.231Z,3.00
2017-12-09T16:33:45.935Z,3.00
2017-12-09T16:36:11.915Z,3.00
2017-12-09T16:38:38.722Z,2.90
2017-12-09T16:41:04.715Z,2.90
2017-12-09T16:43:30.685Z,3.00
2017-12-09T16:45:56.918Z,3.10
2017-12-09T16:48:22.900Z,3.20
2017-12-09T16:50:48.869Z,3.10
2017-12-09T16:53:14.840Z,3.20
2017-12-09T16:55:40.864Z,3.10
2017-12-09T16:58:06.833Z,3.20
2017-12-09T17:00:32.857Z,3.30
2017-12-09T17:02:58.832Z,3.30
2017-12-09T17:05:24.793Z,3.40
2017-12-09T17:07:50.786Z,3.30
2017-12-09T17:10:17.485Z,3.30
2017-12-09T17:12:43.449Z,3.20
2017-12-09T17:15:10.168Z,3.10
2017-12-09T17:17:36.140Z,3.10
2017-12-09T17:20:02.096Z,3.20
2017-12-09T17:22:28.121Z,3.10
2017-12-09T17:24:54.123Z,3.00
2017-12-09T17:27:20.080Z,3.10
2017-12-09T17:29:47.943Z,2.90
2017-12-09T17:32:14.653Z,2.90
2017-12-09T17:34:40.636Z,2.90
2017-12-09T17:37:06.625Z,3.00
2017-12-09T17:39:33.336Z,2.90
2017-12-09T17:41:59.296Z,2.90
2017-12-09T17:44:26.528Z,2.80
2017-12-09T17:46:52.488Z,2.80
2017-12-09T17:49:18.448Z,2.70
2017-12-09T17:51:44.433Z,2.70
2017-12-09T17:54:10.397Z,2.70
2017-12-09T17:56:36.370Z,2.80
2017-12-09T17:59:02.657Z,2.80
2017-12-09T18:01:28.637Z,2.70
2017-12-09T18:03:54.628Z,2.70
2017-12-09T18:06:20.648Z,2.80
2017-12-09T18:08:46.624Z,2.80
2017-12-09T18:11:12.601Z,2.80
2017-12-09T18:13:38.582Z,2.70
2017-12-09T18:16:04.552Z,2.70
2017-12-09T18:18:30.532Z,2.80
2017-12-09T18:20:57.277Z,2.70
2017-12-09T18:23:24.007Z,2.70
2017-12-09T18:25:50.740Z,2.80
2017-12-09T18:28:17.469Z,2.80
2017-12-09T18:30:43.431Z,2.70
2017-12-09T18:33:09.425Z,2.70
2017-12-09T18:35:36.121Z,2.70
2017-12-09T18:38:02.104Z,2.70
2017-12-09T18:40:28.092Z,2.80
2017-12-09T18:42:54.064Z,2.80
2017-12-09T18:45:20.035Z,2.80
2017-12-09T18:47:46.040Z,2.90
2017-12-09T18:50:12.005Z,2.70
2017-12-09T18:52:37.976Z,2.70
2017-12-09T18:55:03.925Z,2.80
2017-12-09T18:57:30.624Z,2.80
2017-12-09T18:59:56.972Z,2.80
2017-12-09T19:02:22.933Z,2.80
2017-12-09T19:04:48.885Z,2.70
2017-12-09T19:07:14.869Z,2.70
2017-12-09T19:09:40.840Z,2.70
2017-12-09T19:12:06.825Z,2.80
2017-12-09T19:14:32.812Z,2.80
2017-12-09T19:16:59.514Z,2.80
2017-12-09T19:19:25.484Z,2.70
2017-12-09T19:21:51.460Z,2.80
2017-12-09T19:24:17.761Z,2.70
2017-12-09T19:26:43.749Z,2.80
2017-12-09T19:29:10.476Z,2.80
2017-12-09T19:31:37.239Z,2.80
2017-12-09T19:34:03.168Z,2.80
2017-12-09T19:36:30.074Z,2.90
2017-12-09T19:38:56.805Z,2.80
2017-12-09T19:41:22.780Z,2.80
2017-12-09T19:43:48.764Z,2.80
2017-12-09T19:46:15.494Z,2.80
2017-12-09T19:48:42.201Z,2.80
2017-12-09T19:51:08.188Z,2.80
2017-12-09T19:53:34.165Z,2.80
2017-12-09T19:56:00.880Z,2.80
2017-12-09T19:58:26.909Z,2.80
2017-12-09T20:00:52.874Z,2.70
2017-12-09T20:03:18.872Z,2.80
2017-12-09T20:05:45.592Z,2.80
2017-12-09T20:08:11.584Z,2.80
2017-12-09T20:10:37.532Z,2.90
2017-12-09T20:13:03.860Z,2.80
2017-12-09T20:15:29.874Z,2.90
2017-12-09T20:17:55.842Z,2.90
2017-12-09T20:20:22.133Z,2.80
2017-12-09T20:22:48.097Z,2.80
2017-12-09T20:25:14.125Z,2.80
2017-12-09T20:27:40.104Z,2.80
2017-12-09T20:30:06.831Z,2.70
2017-12-09T20:32:32.793Z,2.70
2017-12-09T20:34:58.785Z,2.70
2017-12-09T20:37:25.492Z,2.70
2017-12-09T20:39:51.477Z,2.70
2017-12-09T20:42:17.456Z,2.70
2017-12-09T20:44:43.463Z,2.70
2017-12-09T20:47:09.451Z,2.70
2017-12-09T20:49:35.720Z,2.80
2017-12-09T20:52:01.648Z,2.80
2017-12-09T20:54:28.373Z,2.80
2017-12-09T20:56:54.386Z,2.80
2017-12-09T20:59:20.385Z,2.80
2017-12-09T21:01:46.362Z,2.60
2017-12-09T21:04:13.086Z,2.70
2017-12-09T21:06:39.846Z,2.70
2017-12-09T21:09:05.844Z,2.70
2017-12-09T21:11:34.093Z,2.80
2017-12-09T21:14:00.284Z,2.80
2017-12-09T21:16:26.268Z,2.80
2017-12-09T21:18:53.028Z,2.80
2017-12-09T21:21:19.015Z,2.80
2017-12-09T21:23:45.369Z,2.70
2017-12-09T21:26:11.472Z,2.70
2017-12-09T21:28:37.442Z,2.70
2017-12-09T21:31:03.406Z,2.70
2017-12-09T21:33:29.400Z,2.80
2017-12-09T21:35:55.374Z,2.80
2017-12-09T21:38:22.108Z,2.80
2017-12-09T21:40:48.100Z,2.80
2017-12-09T21:43:14.066Z,2.90
2017-12-09T21:45:40.058Z,2.90
2017-12-09T21:48:06.829Z,2.80
2017-12-09T21:50:32.793Z,2.80
2017-12-09T21:52:58.764Z,2.90
2017-12-09T21:55:24.752Z,2.80
2017-12-09T21:57:50.728Z,2.90
2017-12-09T22:00:17.531Z,3.00
2017-12-09T22:02:43.738Z,2.90
2017-12-09T22:05:10.464Z,3.00
2017-12-09T22:07:36.440Z,3.00
2017-12-09T22:10:02.453Z,2.90
2017-12-09T22:12:28.456Z,2.90
2017-12-09T22:14:55.203Z,2.90
2017-12-09T22:17:21.224Z,2.90
2017-12-09T22:19:47.189Z,3.00
2017-12-09T22:22:13.144Z,3.00
2017-12-09T22:24:39.853Z,2.90
2017-12-09T22:27:05.842Z,2.90
2017-12-09T22:29:31.804Z,2.90
2017-12-09T22:31:57.875Z,2.90
2017-12-09T22:34:23.848Z,2.90
2017-12-09T22:36:49.815Z,2.80
2017-12-09T22:39:16.105Z,2.90
2017-12-09T22:41:42.067Z,3.00
2017-12-09T22:44:08.024Z,2.90
2017-12-09T22:46:34.004Z,2.90
2017-12-09T22:48:59.983Z,3.00
2017-12-09T22:51:25.965Z,2.90
2017-12-09T22:53:51.948Z,3.00
2017-12-09T22:56:17.909Z,3.10
2017-12-09T22:58:43.876Z,3.10
2017-12-09T23:01:10.910Z,3.00
2017-12-09T23:03:37.636Z,3.00
2017-12-09T23:06:03.597Z,3.00
2017-12-09T23:08:29.984Z,2.90
2017-12-09T23:10:55.960Z,3.00
2017-12-09T23:13:21.937Z,3.10
2017-12-09T23:15:48.071Z,3.00
2017-12-09T23:18:14.801Z,3.10
2017-12-09T23:20:40.771Z,3.00
2017-12-09T23:23:06.757Z,3.10
2017-12-09T23:25:33.457Z,3.10
2017-12-09T23:27:59.428Z,3.10
2017-12-09T23:30:25.409Z,3.10
2017-12-09T23:32:51.397Z,3.10
2017-12-09T23:35:17.376Z,3.10
2017-12-09T23:37:44.093Z,3.20
2017-12-09T23:40:10.080Z,3.10
2017-12-09T23:42:36.059Z,3.20
2017-12-09T23:45:02.029Z,3.10
2017-12-09T23:47:28.033Z,3.10
2017-12-09T23:49:53.997Z,3.00
2017-12-09T23:52:19.975Z,3.00
2017-12-09T23:54:45.951Z,3.00
2017-12-09T23:57:12.672Z,3.00
2017-12-09T23:59:38.660Z,2.90
